createdAt,value
2018-08-07T00:00:11.977Z,24.70
2018-08-07T00:02:39.910Z,24.50
2018-08-07T00:05:07.650Z,24.30
2018-08-07T00:07:35.437Z,24.30
2018-08-07T00:10:03.226Z,24.30
2018-08-07T00:12:30.998Z,24.40
2018-08-07T00:14:58.729Z,24.20
2018-08-07T00:17:26.474Z,24.20
2018-08-07T00:19:54.205Z,24.10
2018-08-07T00:22:22.049Z,24.00
2018-08-07T00:24:49.798Z,23.90
2018-08-07T00:27:17.561Z,23.90
2018-08-07T00:29:45.301Z,23.90
2018-08-07T00:32:13.074Z,23.90
2018-08-07T00:34:40.842Z,23.80
2018-08-07T00:37:08.593Z,23.80
2018-08-07T00:39:36.357Z,23.80
2018-08-07T00:42:04.118Z,23.80
2018-08-07T00:44:31.894Z,23.70
2018-08-07T00:46:59.613Z,23.70
2018-08-07T00:49:27.338Z,23.60
2018-08-07T00:54:22.569Z,23.70
2018-08-07T00:56:50.374Z,23.70
2018-08-07T00:59:18.111Z,23.60
2018-08-07T01:01:45.884Z,23.70
2018-08-07T01:04:13.654Z,23.70
2018-08-07T01:06:41.895Z,23.70
2018-08-07T01:09:10.413Z,23.70
2018-08-07T01:11:38.245Z,23.70
2018-08-07T01:14:06.017Z,23.70
2018-08-07T01:16:33.817Z,24.50
2018-08-07T01:19:01.546Z,24.70
2018-08-07T01:21:29.289Z,24.60
2018-08-07T01:23:57.002Z,24.60
2018-08-07T01:26:24.756Z,24.70
2018-08-07T01:28:52.533Z,25.00
2018-08-07T01:31:20.299Z,25.60
2018-08-07T01:33:48.038Z,25.90
2018-08-07T01:36:15.786Z,25.90
2018-08-07T01:38:43.530Z,25.80
2018-08-07T01:41:11.278Z,26.10
2018-08-07T01:43:39.017Z,25.90
2018-08-07T01:46:06.801Z,26.30
2018-08-07T01:48:34.598Z,26.30
2018-08-07T01:51:02.363Z,26.40
2018-08-07T01:53:30.093Z,26.50
2018-08-07T01:55:57.865Z,26.30
2018-08-07T01:58:25.589Z,26.10
2018-08-07T02:00:53.333Z,25.90
2018-08-07T02:03:21.118Z,25.70
2018-08-07T02:05:48.869Z,25.60
2018-08-07T02:08:16.606Z,25.40
2018-08-07T02:10:44.370Z,25.40
2018-08-07T02:13:12.128Z,25.10
2018-08-07T02:15:39.885Z,25.00
2018-08-07T02:18:07.648Z,24.90
2018-08-07T02:20:35.430Z,24.70
2018-08-07T02:23:03.177Z,24.60
2018-08-07T02:25:30.949Z,24.40
2018-08-07T02:27:58.695Z,24.40
2018-08-07T02:30:26.422Z,24.40
2018-08-07T02:32:54.174Z,24.40
2018-08-07T02:35:21.902Z,24.20
2018-08-07T02:37:49.650Z,24.10
2018-08-07T02:40:17.649Z,24.00
2018-08-07T02:42:45.581Z,23.80
2018-08-07T02:45:15.127Z,23.70
2018-08-07T02:47:43.692Z,23.60
2018-08-07T02:50:12.702Z,23.50
2018-08-07T02:52:40.514Z,23.50
2018-08-07T02:55:09.242Z,23.40
2018-08-07T02:57:37.203Z,23.40
2018-08-07T03:00:06.031Z,23.40
2018-08-07T03:02:33.781Z,23.40
2018-08-07T03:05:01.510Z,23.40
2018-08-07T03:07:29.321Z,23.30
2018-08-07T03:09:57.063Z,23.30
2018-08-07T03:12:25.054Z,23.20
2018-08-07T03:14:52.777Z,23.10
2018-08-07T03:17:20.586Z,23.10
2018-08-07T03:19:48.309Z,23.00
2018-08-07T03:22:16.074Z,22.90
2018-08-07T03:24:43.798Z,22.80
2018-08-07T03:27:11.542Z,22.90
2018-08-07T03:29:39.297Z,22.70
2018-08-07T03:32:07.046Z,22.70
2018-08-07T03:34:34.798Z,22.60
2018-08-07T03:37:02.522Z,22.60
2018-08-07T03:39:30.350Z,22.50
2018-08-07T03:41:58.090Z,22.50
2018-08-07T03:44:25.844Z,22.40
2018-08-07T03:46:53.605Z,22.40
2018-08-07T03:49:21.357Z,22.30
2018-08-07T03:51:49.114Z,22.20
2018-08-07T03:54:16.844Z,22.10
2018-08-07T03:56:44.601Z,22.10
2018-08-07T03:59:12.470Z,22.10
2018-08-07T04:01:40.190Z,21.90
2018-08-07T04:04:08.048Z,22.00
2018-08-07T04:06:35.783Z,21.90
2018-08-07T04:09:03.672Z,21.80
2018-08-07T04:11:31.486Z,21.80
2018-08-07T04:13:59.267Z,21.80
2018-08-07T04:16:26.989Z,21.70
2018-08-07T04:18:54.777Z,21.60
2018-08-07T04:21:22.510Z,21.60
2018-08-07T04:23:50.258Z,21.60
2018-08-07T04:26:17.986Z,21.80
2018-08-07T04:28:45.734Z,21.80
2018-08-07T04:31:13.462Z,21.70
2018-08-07T04:33:41.190Z,21.70
2018-08-07T04:36:09.003Z,21.70
2018-08-07T04:38:36.746Z,21.80
2018-08-07T04:41:04.506Z,21.80
2018-08-07T04:43:32.271Z,21.80
2018-08-07T04:46:00.023Z,21.80
2018-08-07T04:48:27.765Z,21.90
2018-08-07T04:50:55.514Z,22.00
2018-08-07T04:53:23.278Z,22.00
2018-08-07T04:55:51.065Z,22.10
2018-08-07T04:58:18.807Z,22.20
2018-08-07T05:00:46.541Z,22.30
2018-08-07T05:03:14.298Z,22.30
2018-08-07T05:05:42.029Z,22.40
2018-08-07T05:08:09.822Z,22.50
2018-08-07T05:10:37.578Z,22.60
2018-08-07T05:13:05.358Z,22.60
2018-08-07T05:15:33.090Z,22.60
2018-08-07T05:18:00.842Z,22.70
2018-08-07T05:20:28.617Z,22.80
2018-08-07T05:22:56.350Z,22.90
2018-08-07T05:25:24.097Z,23.00
2018-08-07T05:27:51.832Z,23.20
2018-08-07T05:32:47.634Z,23.50
2018-08-07T05:35:16.143Z,23.70
2018-08-07T05:37:44.273Z,23.70
2018-08-07T05:40:12.379Z,23.80
2018-08-07T05:42:40.896Z,24.00
2018-08-07T05:45:09.846Z,24.10
2018-08-07T05:47:37.633Z,24.20
2018-08-07T05:50:07.049Z,24.40
2018-08-07T05:52:34.774Z,24.50
2018-08-07T05:55:02.532Z,24.60
2018-08-07T05:57:30.278Z,24.80
2018-08-07T05:59:58.042Z,25.00
2018-08-07T06:02:25.826Z,25.20
2018-08-07T06:04:53.580Z,25.40
2018-08-07T06:07:21.925Z,25.60
2018-08-07T06:09:49.684Z,25.60
2018-08-07T06:12:17.485Z,25.60
2018-08-07T06:14:45.243Z,25.80
2018-08-07T06:17:13.022Z,25.80
2018-08-07T06:19:40.785Z,25.90
2018-08-07T06:22:08.603Z,26.10
2018-08-07T06:24:36.358Z,26.10
2018-08-07T06:27:04.121Z,26.00
2018-08-07T06:29:31.878Z,25.90
2018-08-07T06:32:00.659Z,25.70
2018-08-07T06:34:28.457Z,25.60
2018-08-07T06:36:56.245Z,25.60
2018-08-07T06:39:23.986Z,25.50
2018-08-07T06:41:51.749Z,25.70
2018-08-07T06:44:19.483Z,26.00
2018-08-07T06:46:47.255Z,26.10
2018-08-07T06:49:15.034Z,26.20
2018-08-07T06:51:42.875Z,26.60
2018-08-07T06:54:10.605Z,26.80
2018-08-07T06:56:38.360Z,27.00
2018-08-07T06:59:06.110Z,27.10
2018-08-07T07:01:33.901Z,27.60
2018-08-07T07:04:01.657Z,27.20
2018-08-07T07:06:29.386Z,27.30
2018-08-07T07:08:57.158Z,27.50
2018-08-07T07:11:24.938Z,27.40
2018-08-07T07:13:52.718Z,27.30
2018-08-07T07:16:20.449Z,27.50
2018-08-07T07:18:48.318Z,27.40
2018-08-07T07:21:16.062Z,27.30
2018-08-07T07:23:43.818Z,27.20
2018-08-07T07:26:11.573Z,27.20
2018-08-07T07:28:39.310Z,27.40
2018-08-07T07:31:07.329Z,27.60
2018-08-07T07:33:35.074Z,27.60
2018-08-07T07:36:02.882Z,27.80
2018-08-07T07:38:30.646Z,28.20
2018-08-07T07:40:58.447Z,28.30
2018-08-07T07:43:26.181Z,28.80
2018-08-07T07:45:53.934Z,29.20
2018-08-07T07:50:49.159Z,28.80
2018-08-07T07:53:16.937Z,29.40
2018-08-07T07:55:44.707Z,29.20
2018-08-07T07:58:12.506Z,29.20
2018-08-07T08:00:40.246Z,29.60
2018-08-07T08:03:08.001Z,29.60
2018-08-07T08:05:36.676Z,29.10
2018-08-07T08:08:04.474Z,28.80
2018-08-07T08:10:32.261Z,28.60
2018-08-07T08:13:00.086Z,28.80
2018-08-07T08:15:27.846Z,28.60
2018-08-07T08:17:55.650Z,28.30
2018-08-07T08:20:24.645Z,28.20
2018-08-07T08:22:53.122Z,28.40
2018-08-07T08:25:20.894Z,28.50
2018-08-07T08:27:48.644Z,28.30
2018-08-07T08:30:17.038Z,28.40
2018-08-07T08:32:45.292Z,28.80
2018-08-07T08:35:14.543Z,28.80
2018-08-07T08:37:43.453Z,28.90
2018-08-07T08:40:12.244Z,28.80
2018-08-07T08:42:40.505Z,28.80
2018-08-07T08:45:11.714Z,29.00
2018-08-07T08:47:39.754Z,29.20
2018-08-07T08:50:08.954Z,29.60
2018-08-07T08:52:36.719Z,30.10
2018-08-07T08:55:04.690Z,30.80
2018-08-07T08:57:32.454Z,31.30
2018-08-07T09:00:00.410Z,31.20
2018-08-07T09:02:28.195Z,31.60
2018-08-07T09:04:55.967Z,31.70
2018-08-07T09:07:23.729Z,32.00
2018-08-07T09:09:51.478Z,32.60
2018-08-07T09:12:19.295Z,32.50
2018-08-07T09:14:47.070Z,32.40
2018-08-07T09:17:14.838Z,32.80
2018-08-07T09:19:42.614Z,32.60
2018-08-07T09:22:10.405Z,33.00
2018-08-07T09:24:38.249Z,32.60
2018-08-07T09:27:06.006Z,32.10
2018-08-07T09:29:33.834Z,32.40
2018-08-07T09:32:01.580Z,32.80
2018-08-07T09:34:29.369Z,33.20
2018-08-07T09:36:57.138Z,33.00
2018-08-07T09:39:24.901Z,33.20
2018-08-07T09:41:52.678Z,33.50
2018-08-07T09:44:20.438Z,33.30
2018-08-07T09:46:48.179Z,33.40
2018-08-07T09:49:15.933Z,33.20
2018-08-07T09:51:43.745Z,33.20
2018-08-07T09:54:11.509Z,33.20
2018-08-07T09:56:39.274Z,34.10
2018-08-07T09:59:07.054Z,33.90
2018-08-07T10:01:40.317Z,34.40
2018-08-07T10:04:08.088Z,34.00
2018-08-07T10:06:35.857Z,33.10
2018-08-07T10:09:04.082Z,33.10
2018-08-07T10:11:31.902Z,33.50
2018-08-07T10:14:00.278Z,33.30
2018-08-07T10:16:28.070Z,33.40
2018-08-07T10:18:55.814Z,33.70
2018-08-07T10:21:23.569Z,34.20
2018-08-07T10:23:51.362Z,34.20
2018-08-07T10:26:19.158Z,33.90
2018-08-07T10:28:46.919Z,34.50
2018-08-07T10:31:14.671Z,33.80
2018-08-07T10:33:42.427Z,34.10
2018-08-07T10:36:10.194Z,34.80
2018-08-07T10:38:37.987Z,34.50
2018-08-07T10:41:05.860Z,34.60
2018-08-07T10:43:33.657Z,34.40
2018-08-07T10:46:01.320Z,34.30
2018-08-07T10:48:29.100Z,34.40
2018-08-07T10:50:56.959Z,34.10
2018-08-07T10:53:24.694Z,34.60
2018-08-07T10:55:52.490Z,35.00
2018-08-07T10:58:20.244Z,34.80
2018-08-07T11:00:48.030Z,35.20
2018-08-07T11:03:15.796Z,35.20
2018-08-07T11:05:43.607Z,34.20
2018-08-07T11:08:11.325Z,34.60
2018-08-07T11:10:40.378Z,35.70
2018-08-07T11:13:08.208Z,34.80
2018-08-07T11:15:36.202Z,34.70
2018-08-07T11:18:04.287Z,35.20
2018-08-07T11:20:32.360Z,35.50
2018-08-07T11:23:01.453Z,35.70
2018-08-07T11:25:30.106Z,35.70
2018-08-07T11:27:58.233Z,35.50
2018-08-07T11:30:27.181Z,35.90
2018-08-07T11:32:55.857Z,35.70
2018-08-07T11:35:24.361Z,35.60
2018-08-07T11:37:53.081Z,35.40
2018-08-07T11:40:22.018Z,35.50
2018-08-07T11:42:50.746Z,35.60
2018-08-07T11:45:20.019Z,35.50
2018-08-07T11:47:48.862Z,36.40
2018-08-07T11:50:17.874Z,36.10
2018-08-07T11:52:45.976Z,36.30
2018-08-07T11:55:15.161Z,35.90
2018-08-07T11:57:43.085Z,35.90
2018-08-07T12:00:15.073Z,36.80
2018-08-07T12:02:42.890Z,36.60
2018-08-07T12:05:10.638Z,36.30
2018-08-07T12:10:08.174Z,36.30
2018-08-07T12:12:35.958Z,36.00
2018-08-07T12:15:03.898Z,36.40
2018-08-07T12:17:31.630Z,36.60
2018-08-07T12:19:59.386Z,36.90
2018-08-07T12:22:27.305Z,37.40
2018-08-07T12:24:55.066Z,37.30
2018-08-07T12:27:22.810Z,37.40
2018-08-07T12:29:50.604Z,38.20
2018-08-07T12:32:18.663Z,38.00
2018-08-07T12:34:46.465Z,38.00
2018-08-07T12:37:14.229Z,37.70
2018-08-07T12:39:42.050Z,37.00
2018-08-07T12:42:09.823Z,37.00
2018-08-07T12:44:37.610Z,36.50
2018-08-07T12:47:05.874Z,36.10
2018-08-07T12:49:33.606Z,35.70
2018-08-07T12:52:01.371Z,36.00
2018-08-07T12:54:29.206Z,35.70
2018-08-07T12:56:56.974Z,35.80
2018-08-07T12:59:24.843Z,35.30
2018-08-07T13:01:52.870Z,35.50
2018-08-07T13:04:20.618Z,35.50
2018-08-07T13:06:48.646Z,34.90
2018-08-07T13:09:16.342Z,34.60
2018-08-07T13:11:44.603Z,34.40
2018-08-07T13:14:13.468Z,34.60
2018-08-07T13:16:41.221Z,34.80
2018-08-07T13:19:09.022Z,34.60
2018-08-07T13:21:36.777Z,34.50
2018-08-07T13:24:04.564Z,34.70
2018-08-07T13:26:32.804Z,34.70
2018-08-07T13:29:00.534Z,35.30
2018-08-07T13:31:28.346Z,35.20
2018-08-07T13:33:56.111Z,35.20
2018-08-07T13:36:23.877Z,34.70
2018-08-07T13:38:51.678Z,34.70
2018-08-07T13:43:47.002Z,34.60
2018-08-07T13:46:14.795Z,34.60
2018-08-07T13:48:42.534Z,34.60
2018-08-07T13:51:10.302Z,34.50
2018-08-07T13:56:06.106Z,34.30
2018-08-07T13:58:33.890Z,34.30
2018-08-07T14:01:01.703Z,34.30
2018-08-07T14:03:29.498Z,34.00
2018-08-07T14:05:57.264Z,34.00
2018-08-07T14:08:25.051Z,34.00
2018-08-07T14:10:52.854Z,34.20
2018-08-07T14:13:20.645Z,34.20
2018-08-07T14:15:48.429Z,34.10
2018-08-07T14:18:16.222Z,34.10
2018-08-07T14:20:43.958Z,34.00
2018-08-07T14:23:11.726Z,34.20
2018-08-07T14:25:39.525Z,34.20
2018-08-07T14:28:07.342Z,34.20
2018-08-07T14:30:35.090Z,34.30
2018-08-07T14:33:03.522Z,34.40
2018-08-07T14:35:31.283Z,34.30
2018-08-07T14:37:59.074Z,34.30
2018-08-07T14:40:27.794Z,34.30
2018-08-07T14:42:56.067Z,34.30
2018-08-07T14:45:25.482Z,34.10
2018-08-07T14:50:23.449Z,33.60
2018-08-07T14:52:51.553Z,33.80
2018-08-07T14:55:19.601Z,33.80
2018-08-07T14:57:47.354Z,33.50
2018-08-07T15:00:17.072Z,33.30
2018-08-07T15:02:45.335Z,33.00
2018-08-07T15:05:13.161Z,32.80
2018-08-07T15:07:40.973Z,32.60
2018-08-07T15:10:11.170Z,32.50
2018-08-07T15:12:39.023Z,32.30
2018-08-07T15:15:11.185Z,32.50
2018-08-07T15:17:38.962Z,32.60
2018-08-07T15:20:07.450Z,32.10
2018-08-07T15:22:35.246Z,32.10
2018-08-07T15:25:03.060Z,32.10
2018-08-07T15:27:30.826Z,31.90
2018-08-07T15:29:58.594Z,32.10
2018-08-07T15:32:26.327Z,31.90
2018-08-07T15:34:54.513Z,31.90
2018-08-07T15:37:22.523Z,31.50
2018-08-07T15:39:50.631Z,31.80
2018-08-07T15:42:18.725Z,31.80
2018-08-07T15:44:48.191Z,31.80
2018-08-07T15:47:16.236Z,31.80
2018-08-07T15:49:45.477Z,31.70
2018-08-07T15:52:14.821Z,31.80
2018-08-07T15:54:44.106Z,31.50
2018-08-07T15:57:13.160Z,31.60
2018-08-07T15:59:42.024Z,31.70
2018-08-07T16:02:11.274Z,31.70
2018-08-07T16:04:40.278Z,31.70
2018-08-07T16:07:09.397Z,31.70
2018-08-07T16:09:37.522Z,31.70
2018-08-07T16:12:06.561Z,31.60
2018-08-07T16:14:34.349Z,31.50
2018-08-07T16:17:03.118Z,31.50
2018-08-07T16:19:32.169Z,31.50
2018-08-07T16:22:01.290Z,31.40
2018-08-07T16:24:30.983Z,31.40
2018-08-07T16:26:59.581Z,31.40
2018-08-07T16:29:29.074Z,31.30
2018-08-07T16:31:58.527Z,31.30
2018-08-07T16:34:27.769Z,31.00
2018-08-07T16:36:56.884Z,31.10
2018-08-07T16:39:26.241Z,31.20
2018-08-07T16:41:56.432Z,31.10
2018-08-07T16:44:27.325Z,31.00
2018-08-07T16:46:56.725Z,31.10
2018-08-07T16:49:29.073Z,30.90
2018-08-07T16:51:58.459Z,30.90
2018-08-07T16:54:30.181Z,30.70
2018-08-07T16:56:59.335Z,30.80
2018-08-07T16:59:28.856Z,30.80
2018-08-07T17:01:58.634Z,30.70
2018-08-07T17:04:27.773Z,30.80
2018-08-07T17:06:57.436Z,30.70
2018-08-07T17:09:26.881Z,30.60
2018-08-07T17:11:56.793Z,30.60
2018-08-07T17:14:24.598Z,30.60
2018-08-07T17:16:54.127Z,30.60
2018-08-07T17:19:23.334Z,30.60
2018-08-07T17:21:52.213Z,30.50
2018-08-07T17:24:21.364Z,30.50
2018-08-07T17:26:51.283Z,30.40
2018-08-07T17:29:20.620Z,30.30
2018-08-07T17:31:48.430Z,30.30
2018-08-07T17:34:17.574Z,30.20
2018-08-07T17:36:46.488Z,30.30
2018-08-07T17:39:16.736Z,30.30
2018-08-07T17:41:46.193Z,30.30
2018-08-07T17:44:13.993Z,30.20
2018-08-07T17:46:41.802Z,30.10
2018-08-07T17:49:09.546Z,30.10
2018-08-07T17:51:38.234Z,30.00
2018-08-07T17:54:06.507Z,30.10
2018-08-07T17:56:36.039Z,30.20
2018-08-07T17:59:06.814Z,30.10
2018-08-07T18:01:36.198Z,30.10
2018-08-07T18:04:06.018Z,30.20
2018-08-07T18:06:33.976Z,30.10
2018-08-07T18:09:02.891Z,30.10
2018-08-07T18:11:30.641Z,30.00
2018-08-07T18:14:00.745Z,30.10
2018-08-07T18:16:28.498Z,30.00
2018-08-07T18:18:58.360Z,30.00
2018-08-07T18:21:29.360Z,30.00
2018-08-07T18:23:58.387Z,29.90
2018-08-07T18:26:26.221Z,29.90
2018-08-07T18:28:53.975Z,29.90
2018-08-07T18:31:21.784Z,29.90
2018-08-07T18:33:51.047Z,29.80
2018-08-07T18:36:19.884Z,29.80
2018-08-07T18:38:50.018Z,29.80
2018-08-07T18:41:59.127Z,29.60
2018-08-07T18:44:28.787Z,29.60
2018-08-07T18:46:58.750Z,29.60
2018-08-07T18:49:26.854Z,29.40
2018-08-07T18:51:57.471Z,29.30
2018-08-07T18:54:25.275Z,29.30
2018-08-07T18:56:54.020Z,29.10
2018-08-07T18:59:23.619Z,29.00
2018-08-07T19:01:53.165Z,28.80
2018-08-07T19:04:22.176Z,28.60
2018-08-07T19:06:51.644Z,28.50
2018-08-07T19:09:22.197Z,28.40
2018-08-07T19:11:52.502Z,28.20
2018-08-07T19:14:21.695Z,28.10
2018-08-07T19:16:50.684Z,28.00
2018-08-07T19:19:18.522Z,27.80
2018-08-07T19:21:46.263Z,27.60
2018-08-07T19:24:15.957Z,27.40
2018-08-07T19:26:43.755Z,27.40
2018-08-07T19:29:12.798Z,27.20
2018-08-07T19:31:40.571Z,27.10
2018-08-07T19:34:08.978Z,27.00
2018-08-07T19:36:38.347Z,26.90
2018-08-07T19:39:08.834Z,26.70
2018-08-07T19:41:36.593Z,26.70
2018-08-07T19:44:05.029Z,26.60
2018-08-07T19:46:34.058Z,26.50
2018-08-07T19:49:03.721Z,26.40
2018-08-07T19:51:31.698Z,26.40
2018-08-07T19:53:59.429Z,26.30
2018-08-07T19:56:27.244Z,26.10
2018-08-07T19:58:54.966Z,25.80
2018-08-07T20:01:22.962Z,25.70
2018-08-07T20:03:50.741Z,25.80
2018-08-07T20:06:18.531Z,25.60
2018-08-07T20:08:46.253Z,25.40
2018-08-07T20:11:14.015Z,25.40
2018-08-07T20:13:41.770Z,25.30
2018-08-07T20:16:09.537Z,25.20
2018-08-07T20:18:37.293Z,25.20
2018-08-07T20:21:05.066Z,25.20
2018-08-07T20:23:32.825Z,25.20
2018-08-07T20:26:00.578Z,25.20
2018-08-07T20:28:28.563Z,25.20
2018-08-07T20:30:56.306Z,25.10
2018-08-07T20:33:24.245Z,25.10
2018-08-07T20:35:51.985Z,24.80
2018-08-07T20:38:19.761Z,24.70
2018-08-07T20:40:48.165Z,24.60
2018-08-07T20:43:15.926Z,24.50
2018-08-07T20:45:43.685Z,24.50
2018-08-07T20:48:13.092Z,24.60
2018-08-07T20:50:40.909Z,24.50
2018-08-07T20:53:08.645Z,24.50
2018-08-07T20:55:36.388Z,24.50
2018-08-07T20:58:04.141Z,24.50
2018-08-07T21:00:31.909Z,24.30
2018-08-07T21:02:59.657Z,24.30
2018-08-07T21:05:27.405Z,24.30
2018-08-07T21:07:55.178Z,24.20
2018-08-07T21:10:23.884Z,24.20
2018-08-07T21:12:51.709Z,24.10
2018-08-07T21:15:19.437Z,24.10
2018-08-07T21:17:47.202Z,24.00
2018-08-07T21:20:16.669Z,24.00
2018-08-07T21:22:44.553Z,24.00
2018-08-07T21:25:13.851Z,23.70
2018-08-07T21:27:41.658Z,23.60
2018-08-07T21:30:12.030Z,23.70
2018-08-07T21:32:40.058Z,23.70
2018-08-07T21:35:08.918Z,23.80
2018-08-07T21:37:36.637Z,23.70
2018-08-07T21:40:04.658Z,23.70
2018-08-07T21:42:32.375Z,23.70
2018-08-07T21:45:00.186Z,23.60
2018-08-07T21:47:28.117Z,23.60
2018-08-07T21:49:55.858Z,23.60
2018-08-07T21:52:23.585Z,23.50
2018-08-07T21:54:51.338Z,23.30
2018-08-07T21:57:19.089Z,23.30
2018-08-07T21:59:46.882Z,23.40
2018-08-07T22:02:14.669Z,23.30
2018-08-07T22:04:42.501Z,23.20
2018-08-07T22:07:10.266Z,23.20
2018-08-07T22:09:38.018Z,23.30
2018-08-07T22:12:06.046Z,23.20
2018-08-07T22:14:33.824Z,23.20
2018-08-07T22:17:01.755Z,23.10
2018-08-07T22:19:29.490Z,23.10
2018-08-07T22:21:57.262Z,23.00
2018-08-07T22:24:25.026Z,23.00
2018-08-07T22:26:52.810Z,23.00
2018-08-07T22:29:20.569Z,23.00
2018-08-07T22:31:48.314Z,22.80
2018-08-07T22:34:16.106Z,22.80
2018-08-07T22:36:43.863Z,22.90
2018-08-07T22:39:11.622Z,22.90
2018-08-07T22:41:39.360Z,22.90
2018-08-07T22:44:07.134Z,22.90
2018-08-07T22:46:34.882Z,22.80
2018-08-07T22:49:02.747Z,22.70
2018-08-07T22:51:30.509Z,22.60
2018-08-07T22:53:58.270Z,22.50
2018-08-07T22:56:26.021Z,22.50
2018-08-07T22:58:53.781Z,22.40
2018-08-07T23:01:21.545Z,22.40
2018-08-07T23:03:49.287Z,22.40
2018-08-07T23:06:17.050Z,22.40
2018-08-07T23:08:44.785Z,22.40
2018-08-07T23:11:12.533Z,22.40
2018-08-07T23:13:40.301Z,22.30
2018-08-07T23:16:08.178Z,22.30
2018-08-07T23:18:35.930Z,22.40
2018-08-07T23:21:03.728Z,22.30
2018-08-07T23:23:31.449Z,22.30
2018-08-07T23:25:59.196Z,22.20
2018-08-07T23:28:26.953Z,22.20
2018-08-07T23:30:54.746Z,22.30
2018-08-07T23:33:22.486Z,22.20
2018-08-07T23:35:50.207Z,22.30
2018-08-07T23:38:17.934Z,22.20
2018-08-07T23:40:45.682Z,22.10
2018-08-07T23:43:13.449Z,22.20
2018-08-07T23:45:41.209Z,22.20
2018-08-07T23:48:09.027Z,22.20
2018-08-07T23:50:36.778Z,22.20
2018-08-07T23:53:04.558Z,22.20
2018-08-07T23:55:32.295Z,22.10
2018-08-07T23:58:00.042Z,22.10
